KLUL

Hesler-Noble Field Airport

Laurel, Mississippi, USA
METAR KLUL 211735Z AUTO 28004KT 10SM CLR 31/22 A2994 RMK AO2 T03110216
Observed Flight Rules
Jul-21 @ 17:35 UTC (6 minutes ago) Visual Flight Rules
Wind Visibility Clouds
280° at 4 knots 10 miles
  • Clear skies
Temperatures Readings
Current 31°C / 88°F
Dewpoint 22°C / 72°F
Humidity 59%
Altimeter 29.94" Hg
Pressure 1014 hPa
Elevation 73
METAR KLUL 211735Z AUTO 28004KT 10SM CLR 31/22 A2994 RMK AO2 T03110216
Observed Flight Rules
Jul-21 @ 17:35 UTC
(6 minutes ago)
VFR
Wind Visibility
280° at 4 knots 10 miles
Clouds
  • Clear skies
Temperature Dewpoint
31°C / 88°F 22°C / 72°F
Humidity Altimeter Pressure
59% 29.94" Hg 1014 hPa